Time;durP1;ratioP1;P1;durP2;ratioP2;P2;SDS_P1;SDS_P2;PMS_P1;PMS_P2;Temp;Humidity;BMP_temperature;BMP_pressure;BME280_temperature;BME280_humidity;BME280_pressure;Samples;Min_cycle;Max_cycle;Signal;HPM_P1;HPM_P2
2022/04/03 00:02:25;;;;;;;3.25;1.70;;;;;;;4.20;43.62;102259.19;4953218;28;115591;-65
2022/04/03 00:04:52;;;;;;;4.40;1.50;;;;;;;4.16;43.78;102262.66;4954634;28;115066;-65
2022/04/03 00:07:19;;;;;;;3.72;1.58;;;;;;;4.13;43.71;102260.03;4953483;28;126427;-65
2022/04/03 00:09:47;;;;;;;2.75;1.55;;;;;;;4.09;43.70;102257.41;4951753;28;124248;-65
2022/04/03 00:12:14;;;;;;;4.63;1.70;;;;;;;4.07;43.82;102258.28;4956201;28;113909;-65
2022/04/03 00:14:41;;;;;;;4.18;1.65;;;;;;;4.04;43.82;102259.13;4953241;28;114055;-65
2022/04/03 00:17:08;;;;;;;3.33;1.70;;;;;;;4.01;43.83;102253.88;4959466;28;124125;-65
2022/04/03 00:19:35;;;;;;;3.03;1.33;;;;;;;3.97;43.95;102252.06;4953017;28;123840;-65
2022/04/03 00:22:03;;;;;;;3.45;1.73;;;;;;;3.95;43.89;102253.81;4955691;28;114372;-65
2022/04/03 00:24:30;;;;;;;4.65;1.60;;;;;;;3.91;43.75;102252.06;4966128;28;112984;-65
2022/04/03 00:26:57;;;;;;;2.40;1.48;;;;;;;3.88;43.85;102254.66;4953027;28;124820;-65
2022/04/03 00:29:25;;;;;;;3.38;1.70;;;;;;;3.85;43.90;102252.03;4980673;28;122954;-65
2022/04/03 00:31:52;;;;;;;3.45;1.40;;;;;;;3.83;43.75;102248.53;4955324;28;115685;-65
2022/04/03 00:34:19;;;;;;;4.22;1.70;;;;;;;3.79;44.02;102247.63;4962449;28;114946;-65
2022/04/03 00:36:46;;;;;;;2.55;1.50;;;;;;;3.77;43.94;102251.09;4956777;28;124113;-65
2022/04/03 00:39:13;;;;;;;4.10;1.60;;;;;;;3.73;44.07;102246.69;4961698;28;124870;-66
2022/04/03 00:41:41;;;;;;;2.78;1.58;;;;;;;3.70;44.14;102248.44;4959799;28;114198;-65
2022/04/03 00:44:09;;;;;;;3.30;1.58;;;;;;;3.68;44.17;102255.41;4959951;28;114249;-67
2022/04/03 00:46:37;;;;;;;3.65;1.60;;;;;;;3.67;44.08;102248.44;4971210;28;124855;-66
2022/04/03 00:49:04;;;;;;;3.00;1.63;;;;;;;3.64;44.13;102251.03;4960792;28;124524;-66
2022/04/03 00:51:32;;;;;;;4.53;1.85;;;;;;;3.59;44.03;102247.50;4959669;28;114771;-65
2022/04/03 00:53:59;;;;;;;4.28;1.67;;;;;;;3.56;44.13;102250.13;4967343;28;114236;-66
2022/04/03 00:56:26;;;;;;;3.28;1.67;;;;;;;3.50;44.21;102244.81;4960020;28;124077;-66
2022/04/03 00:58:54;;;;;;;4.38;1.83;;;;;;;3.46;44.20;102251.78;4961266;28;124461;-66
2022/04/03 01:01:21;;;;;;;4.72;2.17;;;;;;;3.41;44.02;102245.66;4984657;28;114111;-66
2022/04/03 01:03:49;;;;;;;4.82;2.13;;;;;;;3.38;44.27;102247.38;4967920;28;114155;-65
2022/04/03 01:06:16;;;;;;;4.03;2.05;;;;;;;3.35;44.35;102252.56;4961819;28;124671;-66
2022/04/03 01:08:44;;;;;;;3.10;1.65;;;;;;;3.33;44.40;102246.44;4954856;28;123420;-66
2022/04/03 01:11:20;;;;;;;2.75;1.55;;;;;;;3.28;44.48;102244.66;4955540;28;114134;-66
2022/04/03 01:13:50;;;;;;;4.50;1.80;;;;;;;3.26;44.43;102251.63;4955133;28;113178;-66
2022/04/03 01:16:17;;;;;;;3.33;1.70;;;;;;;3.23;44.48;102246.38;4953180;28;124582;-66
2022/04/03 01:18:45;;;;;;;2.55;1.60;;;;;;;3.23;44.41;102248.97;4959264;28;124369;-66
2022/04/03 01:21:13;;;;;;;3.33;1.52;;;;;;;3.21;44.53;102253.34;4956291;28;115337;-66
2022/04/03 01:23:41;;;;;;;4.30;1.60;;;;;;;3.19;44.55;102255.06;4952360;28;115648;-66
2022/04/03 01:26:08;;;;;;;4.60;1.80;;;;;;;3.18;44.62;102261.16;4960549;28;123878;-66
2022/04/03 01:28:36;;;;;;;4.70;1.88;;;;;;;3.16;44.79;102257.66;4959376;28;123604;-66
2022/04/03 01:31:03;;;;;;;4.18;1.90;;;;;;;3.15;44.92;102253.28;4955695;28;115169;-66
2022/04/03 01:33:30;;;;;;;4.10;1.52;;;;;;;3.13;44.86;102249.78;4955625;28;114443;-66
2022/04/03 01:35:58;;;;;;;3.17;1.85;;;;;;;3.12;44.92;102253.25;4960987;28;123068;-66
2022/04/03 01:38:25;;;;;;;4.15;1.80;;;;;;;3.11;44.78;102249.78;4958753;28;123655;-66
2022/04/03 01:40:52;;;;;;;3.55;1.80;;;;;;;3.12;44.75;102250.63;4963739;28;114252;-66
2022/04/03 01:43:19;;;;;;;4.45;1.88;;;;;;;3.13;44.71;102252.41;4954732;28;114317;-65
2022/04/03 01:45:46;;;;;;;3.60;1.88;;;;;;;3.13;45.04;102244.56;4941204;28;122801;-65
2022/04/03 01:48:13;;;;;;;2.70;1.60;;;;;;;3.13;44.95;102239.31;4956231;28;124035;-67
2022/04/03 01:50:41;;;;;;;4.07;1.67;;;;;;;3.14;45.06;102235.81;4957957;28;114671;-66
2022/04/03 01:53:08;;;;;;;4.22;1.90;;;;;;;3.14;45.33;102243.66;4961925;28;114088;-66
2022/04/03 01:55:35;;;;;;;3.42;1.88;;;;;;;3.15;45.08;102237.59;4952858;28;124200;-65
2022/04/03 01:58:08;;;;;;;6.63;2.03;;;;;;;3.15;45.12;102232.34;4955216;28;124064;-65
2022/04/03 02:00:36;;;;;;;4.43;2.10;;;;;;;3.15;45.25;102227.13;4960660;28;114284;-65
2022/04/03 02:03:03;;;;;;;5.90;2.03;;;;;;;3.15;45.23;102237.59;4963019;28;114403;-65
2022/04/03 02:05:30;;;;;;;4.30;2.00;;;;;;;3.17;45.13;102241.09;4963844;28;124459;-65
2022/04/03 02:07:58;;;;;;;3.17;1.80;;;;;;;3.15;45.17;102232.34;4957861;28;123709;-66
2022/04/03 02:10:25;;;;;;;3.08;1.70;;;;;;;3.17;45.31;102241.09;4958008;28;115382;-66
2022/04/03 02:12:52;;;;;;;4.43;1.90;;;;;;;3.17;45.21;102235.84;4961942;28;115769;-66
2022/04/03 02:15:20;;;;;;;5.60;1.70;;;;;;;3.18;45.27;102241.97;4955435;28;124186;-66
2022/04/03 02:17:47;;;;;;;3.85;1.77;;;;;;;3.18;45.58;102237.59;4959572;28;123781;-66
2022/04/03 02:20:14;;;;;;;4.68;1.73;;;;;;;3.16;45.32;102244.56;4964677;28;114108;-67
2022/04/03 02:22:41;;;;;;;3.03;1.85;;;;;;;3.17;45.28;102241.09;4967317;28;114075;-66
2022/04/03 02:25:13;;;;;;;3.85;1.90;;;;;;;3.14;45.34;102235.81;4963143;28;124112;-66
2022/04/03 02:27:44;;;;;;;4.85;2.05;;;;;;;3.14;45.60;102246.28;4957901;28;124304;-66
2022/04/03 02:30:12;;;;;;;4.10;2.10;;;;;;;3.12;45.41;102242.78;4956154;28;114313;-65
2022/04/03 02:32:41;;;;;;;4.95;1.95;;;;;;;3.12;45.55;102240.16;4955966;28;114416;-66
2022/04/03 02:35:14;;;;;;;3.10;1.80;;;;;;;3.10;45.43;102228.81;4953170;28;124411;-65
2022/04/03 02:37:42;;;;;;;5.18;2.25;;;;;;;3.11;45.36;102235.81;4966529;28;124568;-65
2022/04/03 02:40:12;;;;;;;4.85;2.00;;;;;;;3.07;45.50;102234.00;4967594;28;113376;-65
2022/04/03 02:42:40;;;;;;;3.00;2.03;;;;;;;3.06;45.40;102237.50;4958664;28;114164;-66
2022/04/03 02:45:10;;;;;;;5.00;2.20;;;;;;;3.05;45.63;102235.75;4958333;28;124827;-65
2022/04/03 02:47:37;;;;;;;7.38;2.38;;;;;;;3.03;45.44;102238.38;4954706;28;123981;-65
2022/04/03 02:50:06;;;;;;;5.10;2.30;;;;;;;3.02;45.49;102238.34;4960553;28;114861;-65
2022/04/03 02:52:33;;;;;;;5.55;2.30;;;;;;;3.00;45.58;102235.72;4952374;28;113878;-65
2022/04/03 02:55:00;;;;;;;5.00;2.38;;;;;;;2.99;45.46;102238.31;4954005;28;124058;-65
2022/04/03 02:57:27;;;;;;;4.60;2.67;;;;;;;2.97;45.64;102237.41;4954181;28;123779;-65
2022/04/03 02:59:54;;;;;;;4.72;2.50;;;;;;;2.96;45.66;102240.88;4955191;28;114180;-65
2022/04/03 03:02:22;;;;;;;7.93;2.47;;;;;;;2.95;45.57;102239.16;4975660;28;113802;-65
2022/04/03 03:04:49;;;;;;;5.03;2.60;;;;;;;2.95;45.93;102239.16;4953712;28;124616;-65
2022/04/03 03:07:16;;;;;;;4.97;2.55;;;;;;;2.95;45.60;102239.16;4957691;28;124019;-65
2022/04/03 03:09:43;;;;;;;5.13;2.75;;;;;;;2.95;45.82;102239.16;4952316;28;114372;-64
2022/04/03 03:12:11;;;;;;;4.25;2.20;;;;;;;2.93;45.79;102242.63;4955071;28;114042;-65
2022/04/03 03:14:38;;;;;;;3.65;2.28;;;;;;;2.95;45.88;102249.63;4962386;28;123956;-65
2022/04/03 03:17:05;;;;;;;5.90;2.58;;;;;;;2.92;45.93;102246.13;4952785;28;124531;-65
2022/04/03 03:19:32;;;;;;;7.57;2.70;;;;;;;2.92;45.94;102246.13;4956407;28;114248;-64
2022/04/03 03:21:59;;;;;;;6.97;3.05;;;;;;;2.92;45.91;102245.25;4954883;28;113858;-65
2022/04/03 03:24:26;;;;;;;8.07;2.65;;;;;;;2.91;45.81;102244.34;4958421;28;124747;-64
2022/04/03 03:26:53;;;;;;;8.15;2.75;;;;;;;2.91;46.02;102246.97;4948296;28;124202;-65
2022/04/03 03:29:21;;;;;;;7.80;2.70;;;;;;;2.91;45.82;102244.34;4956155;28;113940;-65
2022/04/03 03:31:48;;;;;;;6.70;3.10;;;;;;;2.90;45.85;102247.84;4952209;28;113768;-64
2022/04/03 03:34:15;;;;;;;5.82;3.00;;;;;;;2.91;46.18;102249.56;4958062;28;124676;-65
2022/04/03 03:36:42;;;;;;;6.55;2.95;;;;;;;2.91;46.06;102249.56;4965070;28;124385;-65
2022/04/03 03:39:09;;;;;;;6.68;2.88;;;;;;;2.88;46.18;102257.41;4962471;28;114167;-65
2022/04/03 03:41:36;;;;;;;6.13;3.05;;;;;;;2.87;46.02;102252.16;4962123;28;113907;-65
2022/04/03 03:44:09;;;;;;;8.18;3.22;;;;;;;2.86;46.27;102251.31;4968393;28;123152;-66
2022/04/03 03:46:39;;;;;;;4.80;2.58;;;;;;;2.84;46.41;102247.75;4958691;28;124512;-66
2022/04/03 03:49:07;;;;;;;5.28;3.00;;;;;;;2.85;46.24;102254.75;4958247;28;115392;-66
2022/04/03 03:51:37;;;;;;;5.90;2.97;;;;;;;2.84;46.46;102253.00;4951478;28;114804;-65
2022/04/03 03:54:04;;;;;;;6.35;2.97;;;;;;;2.85;46.50;102244.28;4961902;28;124565;-66
2022/04/03 03:56:32;;;;;;;5.78;3.10;;;;;;;2.87;46.22;102249.56;4954242;28;124584;-66
2022/04/03 03:58:59;;;;;;;5.65;3.05;;;;;;;2.87;46.29;102249.56;4958874;28;114586;-65
2022/04/03 04:01:27;;;;;;;9.25;3.40;;;;;;;2.87;46.43;102239.94;4956425;28;114021;-66
2022/04/03 04:03:54;;;;;;;6.05;2.83;;;;;;;2.87;46.31;102242.56;4973080;28;123027;-65
2022/04/03 04:06:21;;;;;;;6.32;3.40;;;;;;;2.86;46.41;102240.84;4961075;28;124129;-65
2022/04/03 04:08:48;;;;;;;7.70;3.30;;;;;;;2.85;46.40;102239.06;4955969;28;114780;-65
2022/04/03 04:11:16;;;;;;;6.20;2.97;;;;;;;2.84;46.37;102237.28;4973102;28;112925;-65
2022/04/03 04:13:43;;;;;;;7.78;3.13;;;;;;;2.82;46.53;102236.41;4955765;28;124769;-65
2022/04/03 04:16:10;;;;;;;6.55;3.10;;;;;;;2.82;46.43;102249.50;4953070;28;123832;-64
2022/04/03 04:18:38;;;;;;;6.63;3.13;;;;;;;2.81;46.52;102242.53;4956017;28;114332;-65
2022/04/03 04:21:06;;;;;;;4.93;2.85;;;;;;;2.80;46.43;102245.97;4953859;28;113686;-64
2022/04/03 04:23:33;;;;;;;5.03;2.80;;;;;;;2.80;46.67;102251.22;4953561;28;123836;-65
2022/04/03 04:26:00;;;;;;;4.50;2.78;;;;;;;2.80;46.59;102250.34;4950432;28;124374;-65
2022/04/03 04:28:27;;;;;;;5.40;3.03;;;;;;;2.79;46.77;102259.94;4954521;28;114256;-65
2022/04/03 04:30:57;;;;;;;7.43;3.00;;;;;;;2.80;46.68;102256.44;4958070;28;113939;-64
2022/04/03 04:33:25;;;;;;;6.85;3.35;;;;;;;2.79;46.69;102270.41;4957060;28;124707;-64
2022/04/03 04:35:52;;;;;;;4.32;2.65;;;;;;;2.80;47.09;102272.16;4953045;28;123947;-65
2022/04/03 04:38:19;;;;;;;8.43;3.60;;;;;;;2.80;46.67;102272.16;4958417;28;115792;-65
2022/04/03 04:40:47;;;;;;;6.47;3.25;;;;;;;2.77;46.37;102272.13;4958222;28;114706;-65
2022/04/03 04:43:14;;;;;;;9.65;3.67;;;;;;;2.75;46.45;102273.84;4954029;28;124111;-65
2022/04/03 04:45:41;;;;;;;7.15;3.50;;;;;;;2.71;46.62;102272.03;4952858;28;124618;-65
2022/04/03 04:48:09;;;;;;;6.53;3.03;;;;;;;2.69;46.55;102276.38;4949810;28;114494;-65
2022/04/03 04:50:36;;;;;;;6.32;3.00;;;;;;;2.66;46.55;102273.75;4954535;28;114240;-65
2022/04/03 04:53:05;;;;;;;5.45;3.10;;;;;;;2.64;46.51;102270.25;4965261;28;123699;-65
2022/04/03 04:55:32;;;;;;;6.00;3.17;;;;;;;2.62;46.86;102271.94;4956420;28;123936;-65
2022/04/03 04:57:59;;;;;;;5.00;3.00;;;;;;;2.60;46.96;102278.91;4955692;28;114967;-66
2022/04/03 05:00:29;;;;;;;6.63;2.90;;;;;;;2.59;46.88;102282.41;4951363;28;114024;-65
2022/04/03 05:02:56;;;;;;;5.53;2.80;;;;;;;2.58;46.80;102280.63;4958026;28;123809;-65
2022/04/03 05:05:26;;;;;;;7.13;3.22;;;;;;;2.58;47.12;102278.91;4958030;28;124631;-67
2022/04/03 05:07:56;;;;;;;6.45;3.10;;;;;;;2.59;46.94;102287.63;4964242;28;114879;-65
2022/04/03 05:10:24;;;;;;;5.47;2.95;;;;;;;2.60;46.93;102284.13;4967889;28;113331;-66
2022/04/03 05:12:55;;;;;;;6.07;2.85;;;;;;;2.61;47.19;102285.91;4952079;28;123919;-66
2022/04/03 05:15:22;;;;;;;6.45;3.08;;;;;;;2.62;47.36;102292.88;4957885;28;124055;-66
2022/04/03 05:17:50;;;;;;;5.40;2.85;;;;;;;2.63;47.37;102289.41;4953173;28;115106;-65
2022/04/03 05:20:17;;;;;;;7.40;3.15;;;;;;;2.65;47.23;102287.69;4954792;28;114448;-65
2022/04/03 05:22:44;;;;;;;7.03;3.42;;;;;;;2.67;47.39;102296.41;4952855;28;124627;-65
2022/04/03 05:25:12;;;;;;;4.63;2.85;;;;;;;2.70;47.24;102296.47;4970333;28;122641;-65
2022/04/03 05:27:41;;;;;;;6.50;2.72;;;;;;;2.73;47.39;102296.47;4964382;28;115345;-66
2022/04/03 05:30:09;;;;;;;5.88;3.25;;;;;;;2.76;47.35;102299.13;4951759;28;115384;-65
2022/04/03 05:32:37;;;;;;;6.07;2.70;;;;;;;2.79;47.48;102296.56;4963378;28;124496;-65
2022/04/03 05:35:05;;;;;;;5.55;3.20;;;;;;;2.83;47.45;102293.13;4958588;28;123615;-66
2022/04/03 05:37:38;;;;;;;8.25;3.30;;;;;;;2.88;47.56;102295.75;4962862;28;114663;-65
2022/04/03 05:40:07;;;;;;;5.40;3.13;;;;;;;2.92;47.68;102293.22;4957753;28;114706;-66
2022/04/03 05:42:35;;;;;;;6.65;3.20;;;;;;;2.98;47.71;102296.75;4961271;28;124194;-65
2022/04/03 05:45:05;;;;;;;5.43;3.10;;;;;;;3.03;47.52;102300.28;4961687;28;123983;-65
2022/04/03 05:47:33;;;;;;;5.93;2.97;;;;;;;3.06;47.91;102290.72;4954419;28;114667;-65
2022/04/03 05:50:01;;;;;;;5.45;2.63;;;;;;;3.12;47.90;102295.13;4951239;28;114117;-65
2022/04/03 05:52:41;;;;;;;6.88;2.97;;;;;;;3.18;47.83;102300.41;4954137;28;124003;-65
2022/04/03 05:55:09;;;;;;;6.20;2.78;;;;;;;3.24;47.68;102295.25;4958147;28;123933;-65
2022/04/03 05:57:37;;;;;;;5.90;2.97;;;;;;;3.30;48.02;102295.31;4956335;28;114884;-66
2022/04/03 06:00:06;;;;;;;5.43;2.95;;;;;;;3.38;47.96;102303.22;4955331;28;114276;-65
2022/04/03 06:02:50;;;;;;;5.15;2.75;;;;;;;3.45;48.02;102306.78;4952636;28;124571;-65
2022/04/03 06:05:19;;;;;;;6.28;2.72;;;;;;;3.51;47.99;102304.19;4970471;28;123404;-65
2022/04/03 06:07:47;;;;;;;5.70;3.08;;;;;;;3.58;48.11;102311.25;4953994;28;115040;-65
2022/04/03 06:10:15;;;;;;;6.35;3.25;;;;;;;3.64;48.31;102311.28;4952930;28;114139;-66
2022/04/03 06:12:52;;;;;;;4.95;2.88;;;;;;;3.70;48.32;102305.22;4958146;28;124032;-65
2022/04/03 06:15:19;;;;;;;6.30;2.80;;;;;;;3.76;48.07;102310.50;4957063;28;124518;-65
2022/04/03 06:17:51;;;;;;;6.05;3.05;;;;;;;3.83;48.31;102311.44;4959104;28;115378;-66
2022/04/03 06:20:22;;;;;;;5.85;2.90;;;;;;;3.89;48.49;102308.84;4951869;28;114818;-65
2022/04/03 06:22:50;;;;;;;5.30;3.10;;;;;;;3.96;48.13;102313.25;4951035;28;124084;-66
2022/04/03 06:25:20;;;;;;;7.10;3.03;;;;;;;4.02;48.21;102317.66;4953580;28;124619;-66
2022/04/03 06:27:47;;;;;;;6.35;3.20;;;;;;;4.08;48.16;102310.69;4953323;28;114130;-65
2022/04/03 06:30:15;;;;;;;4.30;2.88;;;;;;;4.16;48.23;102312.47;4968797;28;114521;-65
2022/04/03 06:32:42;;;;;;;5.20;2.70;;;;;;;4.23;48.29;102311.66;4970204;28;125258;-65
2022/04/03 06:35:09;;;;;;;5.90;2.97;;;;;;;4.31;48.39;102309.94;4970464;28;124678;-66
2022/04/03 06:37:37;;;;;;;5.68;2.90;;;;;;;4.37;48.46;102315.22;4968961;28;114520;-65
2022/04/03 06:40:06;;;;;;;8.02;3.47;;;;;;;4.45;48.39;102316.13;4969847;28;114023;-66
2022/04/03 06:42:33;;;;;;;7.60;3.33;;;;;;;4.54;48.42;102311.78;4971327;28;124046;-65
2022/04/03 06:45:02;;;;;;;5.05;3.08;;;;;;;4.60;48.37;102317.94;4972111;28;123722;-65
2022/04/03 06:47:31;;;;;;;6.97;3.58;;;;;;;4.68;48.32;102310.06;4955957;28;113253;-65
2022/04/03 06:49:58;;;;;;;6.03;3.47;;;;;;;4.73;48.27;102313.59;4970236;28;113869;-65
2022/04/03 06:52:27;;;;;;;5.75;3.50;;;;;;;4.78;48.22;102306.59;4971001;28;124006;-66
2022/04/03 06:54:54;;;;;;;6.35;3.58;;;;;;;4.83;48.27;102310.13;4970466;28;123986;-66
2022/04/03 06:57:21;;;;;;;5.57;3.33;;;;;;;4.87;48.12;102311.88;4961105;28;114607;-66
2022/04/03 06:59:48;;;;;;;7.15;4.50;;;;;;;4.92;48.27;102313.66;4954690;28;114192;-66
2022/04/03 07:02:15;;;;;;;7.78;4.28;;;;;;;4.97;48.30;102317.16;4955969;28;124151;-65
2022/04/03 07:04:43;;;;;;;9.55;3.70;;;;;;;5.05;48.39;102320.69;4961188;28;122633;-65
2022/04/03 07:07:23;;;;;;;8.50;3.80;;;;;;;5.15;48.58;102318.94;4959844;28;115602;-65
2022/04/03 07:09:52;;;;;;;7.20;3.42;;;;;;;5.24;48.32;102311.94;4956466;28;115455;-66
2022/04/03 07:12:20;;;;;;;7.70;3.72;;;;;;;5.34;48.71;102317.19;4959677;28;123808;-65
2022/04/03 07:14:47;;;;;;;6.90;3.50;;;;;;;5.40;48.28;102317.19;4973571;28;123043;-65
2022/04/03 07:17:16;;;;;;;8.82;3.60;;;;;;;5.47;48.51;102319.81;4953461;28;114578;-65
2022/04/03 07:19:43;;;;;;;6.40;3.53;;;;;;;5.53;48.30;102318.94;4961828;28;113841;-66
2022/04/03 07:22:10;;;;;;;7.28;3.65;;;;;;;5.58;48.43;102318.97;4954196;28;124940;-65
2022/04/03 07:24:37;;;;;;;6.90;3.45;;;;;;;5.63;48.34;102325.06;4951904;28;124008;-65
2022/04/03 07:27:05;;;;;;;7.00;3.90;;;;;;;5.69;48.57;102318.94;4949446;28;114858;-65
2022/04/03 07:29:33;;;;;;;7.30;3.97;;;;;;;5.72;48.15;102313.69;4954642;28;114109;-65
2022/04/03 07:32:01;;;;;;;9.63;3.85;;;;;;;5.77;48.43;102317.19;4957057;28;124859;-65
2022/04/03 07:34:28;;;;;;;10.75;4.10;;;;;;;5.83;48.34;102322.44;4959772;28;124557;-66
2022/04/03 07:36:56;;;;;;;10.27;4.45;;;;;;;5.92;48.67;102317.16;4954941;28;114252;-65
2022/04/03 07:39:26;;;;;;;9.18;4.43;;;;;;;6.04;48.69;102327.66;4958046;28;114353;-66
2022/04/03 07:41:53;;;;;;;7.43;4.18;;;;;;;6.17;48.98;102322.38;4950381;28;124319;-66
2022/04/03 07:44:20;;;;;;;8.00;4.28;;;;;;;6.28;48.58;102315.34;4972049;28;122869;-67
2022/04/03 07:46:47;;;;;;;8.52;4.25;;;;;;;6.37;48.82;102319.72;4950170;28;113675;-66
2022/04/03 07:49:15;;;;;;;6.50;4.05;;;;;;;6.46;48.55;102324.03;4954433;28;114531;-66
2022/04/03 07:51:42;;;;;;;8.00;4.55;;;;;;;6.57;48.91;102327.50;4953694;28;124277;-66
2022/04/03 07:54:09;;;;;;;8.02;4.13;;;;;;;6.71;48.81;102333.59;4953753;28;124353;-66
2022/04/03 07:56:37;;;;;;;6.68;4.20;;;;;;;6.88;48.91;102327.38;4951170;28;115703;-66
2022/04/03 07:59:06;;;;;;;8.65;3.92;;;;;;;7.05;49.23;102336.03;4950456;28;114848;-66
2022/04/03 08:01:34;;;;;;;5.35;3.92;;;;;;;7.20;49.27;102325.38;4950046;28;123812;-66
2022/04/03 08:04:02;;;;;;;6.07;3.97;;;;;;;7.37;48.96;102324.41;4951277;28;124308;-66
2022/04/03 08:06:29;;;;;;;6.05;3.63;;;;;;;7.53;49.00;102333.91;4951178;28;114404;-66
2022/04/03 08:08:56;;;;;;;6.60;3.15;;;;;;;7.68;48.68;102332.03;4984221;28;114108;-66
2022/04/03 08:11:23;;;;;;;7.60;3.10;;;;;;;7.82;48.89;102335.44;4968144;28;124781;-66
2022/04/03 08:13:51;;;;;;;3.65;2.63;;;;;;;7.96;48.74;102333.50;4970047;28;122864;-66
2022/04/03 08:16:18;;;;;;;8.20;2.80;;;;;;;8.10;48.72;102335.13;4968709;28;113991;-66
2022/04/03 08:18:45;;;;;;;9.25;3.47;;;;;;;8.22;48.41;102335.00;4968495;28;114501;-66
2022/04/03 08:21:12;;;;;;;4.63;2.40;;;;;;;8.35;48.53;102344.53;4969883;28;124091;-66
2022/04/03 08:23:40;;;;;;;5.72;2.38;;;;;;;8.51;48.34;102341.75;4969663;28;124404;-66
2022/04/03 08:26:07;;;;;;;4.35;2.10;;;;;;;8.64;48.07;102343.34;4968528;28;114965;-66
2022/04/03 08:28:35;;;;;;;5.97;2.15;;;;;;;8.77;48.17;102339.63;4970328;28;113239;-66
2022/04/03 08:31:02;;;;;;;5.53;2.42;;;;;;;8.93;47.91;102339.44;4967662;28;124415;-66
2022/04/03 08:33:33;;;;;;;3.45;2.10;;;;;;;9.09;47.99;102345.38;4967324;28;124283;-66
2022/04/03 08:36:03;;;;;;;4.38;2.30;;;;;;;9.25;48.12;102340.72;4949476;28;114743;-66
2022/04/03 08:38:30;;;;;;;3.90;2.38;;;;;;;9.40;47.80;102340.50;4949541;28;114153;-66
2022/04/03 08:41:01;;;;;;;5.18;2.20;;;;;;;9.52;47.63;102337.63;4947986;28;123916;-66
2022/04/03 08:43:32;;;;;;;5.28;2.05;;;;;;;9.63;47.22;102332.19;4950540;28;124231;-66
2022/04/03 08:46:00;;;;;;;3.08;1.70;;;;;;;9.73;47.17;102338.19;4947306;28;115709;-67
2022/04/03 08:48:31;;;;;;;3.75;1.55;;;;;;;9.81;47.02;102324.81;4949037;28;114873;-66
2022/04/03 08:51:04;;;;;;;2.63;1.60;;;;;;;9.91;46.86;102331.69;4966499;28;122741;-66
2022/04/03 08:53:32;;;;;;;3.00;1.40;;;;;;;10.00;46.67;102336.81;4970671;28;123738;-66
2022/04/03 08:55:59;;;;;;;3.60;1.50;;;;;;;10.09;46.48;102338.41;4962452;28;114289;-66
2022/04/03 08:58:26;;;;;;;4.50;1.52;;;;;;;10.19;46.42;102337.34;4956113;28;114001;-66
2022/04/03 09:00:56;;;;;;;3.50;1.30;;;;;;;10.27;46.55;102330.13;4961022;28;124647;-66
2022/04/03 09:03:23;;;;;;;3.55;1.60;;;;;;;10.38;46.62;102334.34;4967955;28;123761;-66
2022/04/03 09:05:50;;;;;;;2.30;1.20;;;;;;;10.52;46.68;102329.66;4978779;28;114202;-66
2022/04/03 09:08:35;;;;;;;2.72;1.25;;;;;;;10.65;45.80;102324.97;4958095;28;113707;-66
2022/04/03 09:11:07;;;;;;;3.17;1.23;;;;;;;10.79;46.09;102327.31;4960783;28;125238;-66
2022/04/03 09:13:37;;;;;;;4.40;1.17;;;;;;;10.91;45.62;102327.03;4960778;28;123860;-66
2022/04/03 09:16:06;;;;;;;1.40;1.13;;;;;;;11.02;45.24;102325.03;4954915;28;114255;-66
2022/04/03 09:18:48;;;;;;;2.25;1.15;;;;;;;11.13;45.47;102315.94;4951645;28;114244;-66
2022/04/03 09:21:20;;;;;;;2.30;1.25;;;;;;;11.28;45.69;102320.88;4958802;28;124363;-66
2022/04/03 09:24:02;;;;;;;1.98;1.10;;;;;;;11.47;45.80;102314.22;4972801;28;124069;-66
2022/04/03 09:26:31;;;;;;;3.15;1.20;;;;;;;11.60;44.73;102316.53;4989475;28;113065;-66
2022/04/03 09:29:13;;;;;;;2.28;1.15;;;;;;;11.60;44.46;102316.53;4973602;28;114675;-66
2022/04/03 09:31:41;;;;;;;2.97;1.10;;;;;;;11.58;44.23;102324.53;4972709;28;124797;-66
2022/04/03 09:34:17;;;;;;;1.60;0.90;;;;;;;11.53;44.12;102320.25;4973734;28;123675;-66
2022/04/03 09:37:05;;;;;;;2.28;1.20;;;;;;;11.49;44.22;102314.19;4970866;28;115718;-66
2022/04/03 09:39:32;;;;;;;3.85;1.25;;;;;;;11.46;44.19;102315.09;4971557;28;115072;-66
2022/04/03 09:42:03;;;;;;;3.97;1.48;;;;;;;11.44;44.02;102319.59;4970488;28;124535;-66
2022/04/03 09:44:32;;;;;;;2.63;1.20;;;;;;;11.41;43.77;102311.69;4973704;28;124431;-66
2022/04/03 09:47:16;;;;;;;2.30;1.30;;;;;;;11.36;43.87;102308.31;4972981;28;113158;-66
2022/04/03 09:49:49;;;;;;;3.88;1.33;;;;;;;11.37;44.01;102306.50;4972309;28;114089;-66
2022/04/03 09:52:39;;;;;;;1.90;1.00;;;;;;;11.40;43.90;102302.00;4970808;28;123901;-66
2022/04/03 09:55:21;;;;;;;2.55;1.30;;;;;;;11.48;43.93;102297.38;4972975;28;122706;-66
2022/04/03 09:58:02;;;;;;;2.35;1.40;;;;;;;11.57;44.45;102293.63;4964197;28;114200;-66
2022/04/03 10:00:44;;;;;;;;;;;;;;;11.69;44.75;102300.38;4954081;28;113745;-67
2022/04/03 10:03:13;;;;;;;1.70;1.10;;;;;;;11.79;44.24;102296.59;4953393;28;124280;-66
2022/04/03 10:05:42;;;;;;;2.88;1.40;;;;;;;11.80;43.85;102293.00;4962940;28;123743;-66
2022/04/03 10:08:11;;;;;;;1.60;1.00;;;;;;;11.81;43.85;102289.44;4975553;28;113198;-66
2022/04/03 10:10:39;;;;;;;1.77;1.02;;;;;;;11.88;43.92;102290.13;4969265;28;114615;-68
2022/04/03 10:13:06;;;;;;;2.38;1.05;;;;;;;12.00;43.84;102281.03;4957466;28;123906;-66
2022/04/03 10:15:34;;;;;;;1.92;1.15;;;;;;;12.11;43.90;102281.59;4949830;28;123821;-66
2022/04/03 10:18:02;;;;;;;2.85;0.82;;;;;;;12.14;43.24;102276.16;4953198;28;114176;-66
2022/04/03 10:20:29;;;;;;;2.10;1.00;;;;;;;12.11;43.04;102280.69;4954031;28;114087;-66
2022/04/03 10:23:10;;;;;;;1.70;0.80;;;;;;;11.99;42.39;102266.00;4953505;28;124152;-66
2022/04/03 10:25:44;;;;;;;1.88;0.95;;;;;;;11.90;42.32;102277.72;4957808;28;124108;-66
2022/04/03 10:28:16;;;;;;;3.15;1.15;;;;;;;11.87;42.88;102272.47;4959690;28;115039;-66
2022/04/03 10:30:43;;;;;;;1.35;1.00;;;;;;;11.92;43.07;102269.72;4959137;28;115186;-66
2022/04/03 10:33:21;;;;;;;1.63;0.80;;;;;;;12.02;43.14;102263.25;4957354;28;124579;-66
2022/04/03 10:36:03;;;;;;;2.17;0.93;;;;;;;12.10;42.89;102266.56;4952022;28;124062;-66
2022/04/03 10:38:37;;;;;;;2.28;0.80;;;;;;;12.14;42.36;102268.19;4954752;28;113546;-66
2022/04/03 10:41:07;;;;;;;1.63;0.87;;;;;;;12.13;42.28;102263.81;4954664;28;114523;-66
2022/04/03 10:43:40;;;;;;;2.33;0.80;;;;;;;12.12;42.45;102256.75;4960291;28;124468;-66
2022/04/03 10:46:08;;;;;;;1.48;0.85;;;;;;;12.15;42.42;102262.00;4959679;28;123835;-66
2022/04/03 10:48:36;;;;;;;3.72;0.90;;;;;;;12.22;42.64;102252.94;4959585;28;114004;-66
2022/04/03 10:51:30;;;;;;;1.00;0.70;;;;;;;12.34;42.44;102245.47;4957683;28;113750;-66
2022/04/03 10:54:01;;;;;;;1.23;0.93;;;;;;;12.43;42.12;102250.53;4965106;28;123035;-66
2022/04/03 10:56:30;;;;;;;1.85;0.95;;;;;;;12.47;42.36;102246.88;4959039;28;124842;-66
2022/04/03 10:58:57;;;;;;;4.65;1.05;;;;;;;12.54;42.37;102248.41;4943106;28;113139;-66
2022/04/03 11:01:26;;;;;;;2.40;0.90;;;;;;;12.61;42.21;102234.03;4952793;28;114377;-67
2022/04/03 11:04:10;;;;;;;1.40;0.77;;;;;;;12.66;41.85;102232.09;4956203;28;124395;-66
2022/04/03 11:06:40;;;;;;;2.00;0.98;;;;;;;12.65;41.74;102225.03;4958495;28;123761;-66
2022/04/03 11:09:11;;;;;;;3.33;1.00;;;;;;;12.60;41.51;102226.97;4956213;28;114225;-66
2022/04/03 11:11:44;;;;;;;2.65;0.90;;;;;;;12.51;41.00;102243.22;4961819;28;114088;-66
2022/04/03 11:14:32;;;;;;;2.55;1.00;;;;;;;12.39;41.02;102239.13;4960983;28;125397;-66
2022/04/03 11:17:00;;;;;;;1.80;0.90;;;;;;;12.24;41.15;102242.25;4957733;28;124551;-66
2022/04/03 11:19:35;;;;;;;2.92;1.05;;;;;;;12.14;41.14;102239.00;4961979;28;115607;-66
2022/04/03 11:22:04;;;;;;;1.10;0.80;;;;;;;12.08;41.00;102244.47;4954246;28;114599;-66
2022/04/03 11:24:35;;;;;;;3.00;0.95;;;;;;;11.99;41.10;102239.44;4957062;28;124053;-66
2022/04/03 11:27:04;;;;;;;2.92;1.17;;;;;;;11.91;41.05;102236.13;4956241;28;123989;-66
2022/04/03 11:29:32;;;;;;;3.47;0.80;;;;;;;11.81;41.21;102244.31;4955109;28;113948;-66
2022/04/03 11:32:05;;;;;;;1.55;0.70;;;;;;;11.72;41.13;102228.66;4958089;28;114767;-66
2022/04/03 11:34:33;;;;;;;2.92;0.68;;;;;;;11.67;41.04;102231.41;4973246;28;124572;-66